createdAt,value
2018-11-10T00:00:18.628Z,24.77
2018-11-10T00:02:49.075Z,22.83
2018-11-10T00:05:18.454Z,25.73
2018-11-10T00:07:46.891Z,23.27
2018-11-10T00:10:16.253Z,26.53
2018-11-10T00:12:44.962Z,24.07
2018-11-10T00:15:14.290Z,24.37
2018-11-10T00:17:42.735Z,23.53
2018-11-10T00:20:11.777Z,23.77
2018-11-10T00:22:41.046Z,24.00
2018-11-10T00:25:11.166Z,23.93
2018-11-10T00:27:40.026Z,24.20
2018-11-10T00:30:10.252Z,25.23
2018-11-10T00:32:39.063Z,24.73
2018-11-10T00:35:08.476Z,23.33
2018-11-10T00:37:36.978Z,26.27
2018-11-10T00:40:06.409Z,22.67
2018-11-10T00:42:35.062Z,22.57
2018-11-10T00:45:03.569Z,27.33
2018-11-10T00:47:32.066Z,22.63
2018-11-10T00:50:00.525Z,27.70
2018-11-10T00:52:29.006Z,25.63
2018-11-10T00:54:57.490Z,28.20
2018-11-10T00:57:26.277Z,25.63
2018-11-10T00:59:54.745Z,24.27
2018-11-10T01:02:23.254Z,24.67
2018-11-10T01:04:51.715Z,23.30
2018-11-10T01:07:20.212Z,25.90
2018-11-10T01:09:48.688Z,24.27
2018-11-10T01:12:17.173Z,23.07
2018-11-10T01:14:45.708Z,23.30
2018-11-10T01:17:14.231Z,27.10
2018-11-10T01:19:42.715Z,24.13
2018-11-10T01:22:11.225Z,26.23
2018-11-10T01:24:39.690Z,25.43
2018-11-10T01:27:08.185Z,22.60
2018-11-10T01:29:36.789Z,25.40
2018-11-10T01:32:05.879Z,26.47
2018-11-10T01:34:34.367Z,25.07
2018-11-10T01:37:02.835Z,23.40
2018-11-10T01:39:31.286Z,23.90
2018-11-10T01:41:59.770Z,23.67
2018-11-10T01:44:28.973Z,24.70
2018-11-10T01:46:57.657Z,21.87
2018-11-10T01:49:26.102Z,22.17
2018-11-10T01:51:55.312Z,23.17
2018-11-10T01:54:23.750Z,23.13
2018-11-10T01:56:52.262Z,21.67
2018-11-10T01:59:20.702Z,22.73
2018-11-10T02:01:49.194Z,22.63
2018-11-10T02:04:17.706Z,23.77
2018-11-10T02:06:46.285Z,26.53
2018-11-10T02:09:14.841Z,27.00
2018-11-10T02:11:43.360Z,24.70
2018-11-10T02:14:11.837Z,23.63
2018-11-10T02:16:40.318Z,24.60
2018-11-10T02:19:08.769Z,24.70
2018-11-10T02:21:37.330Z,26.40
2018-11-10T02:24:06.181Z,24.13
2018-11-10T02:26:34.705Z,25.33
2018-11-10T02:29:03.204Z,23.33
2018-11-10T02:31:31.641Z,23.23
2018-11-10T02:34:00.118Z,24.53
2018-11-10T02:36:28.629Z,24.43
2018-11-10T02:38:57.162Z,25.20
2018-11-10T02:41:25.637Z,22.17
2018-11-10T02:43:54.122Z,25.80
2018-11-10T02:46:22.606Z,24.87
2018-11-10T02:48:51.090Z,27.53
2018-11-10T02:51:19.568Z,24.87
2018-11-10T02:53:48.059Z,24.73
2018-11-10T02:56:16.703Z,22.50
2018-11-10T02:58:45.178Z,23.73
2018-11-10T03:01:13.609Z,24.17
2018-11-10T03:03:42.082Z,25.60
2018-11-10T03:06:10.551Z,26.23
2018-11-10T03:08:39.034Z,24.43
2018-11-10T03:11:07.478Z,27.73
2018-11-10T03:13:35.962Z,24.43
2018-11-10T03:16:04.469Z,25.87
2018-11-10T03:18:32.955Z,24.77
2018-11-10T03:21:01.423Z,22.80
2018-11-10T03:23:29.889Z,20.43
2018-11-10T03:25:58.390Z,23.07
2018-11-10T03:28:26.894Z,22.40
2018-11-10T03:30:55.854Z,23.30
2018-11-10T03:33:24.344Z,22.30
2018-11-10T03:35:52.846Z,24.57
2018-11-10T03:38:21.316Z,27.60
2018-11-10T03:40:49.815Z,22.87
2018-11-10T03:43:19.321Z,20.67
2018-11-10T03:45:47.770Z,25.20
2018-11-10T03:48:16.236Z,26.43
2018-11-10T03:50:44.754Z,20.80
2018-11-10T03:53:13.220Z,18.73
2018-11-10T03:55:41.710Z,20.37
2018-11-10T03:58:10.213Z,20.97
2018-11-10T04:00:38.679Z,20.10
2018-11-10T04:03:07.180Z,20.50
2018-11-10T04:05:35.625Z,19.73
2018-11-10T04:08:04.134Z,19.30
2018-11-10T04:10:32.961Z,18.90
2018-11-10T04:13:01.437Z,17.37
2018-11-10T04:15:30.218Z,22.73
2018-11-10T04:17:58.698Z,16.97
2018-11-10T04:20:27.597Z,19.93
2018-11-10T04:22:56.083Z,17.23
2018-11-10T04:25:24.555Z,15.40
2018-11-10T04:27:53.013Z,14.57
2018-11-10T04:30:21.492Z,14.47
2018-11-10T04:32:49.945Z,18.37
2018-11-10T04:35:18.617Z,13.73
2018-11-10T04:37:58.983Z,14.67
2018-11-10T04:40:38.869Z,17.10
2018-11-10T04:43:07.342Z,14.83
2018-11-10T04:45:35.793Z,13.10
2018-11-10T04:48:04.268Z,12.37
2018-11-10T04:50:33.445Z,13.30
2018-11-10T04:53:01.887Z,12.17
2018-11-10T04:55:30.374Z,13.67
2018-11-10T04:57:58.813Z,14.27
2018-11-10T05:00:27.294Z,12.97
2018-11-10T05:02:55.750Z,12.40
2018-11-10T05:05:24.221Z,11.87
2018-11-10T05:07:52.669Z,12.47
2018-11-10T05:10:21.145Z,16.03
2018-11-10T05:12:49.597Z,12.53
2018-11-10T05:15:18.057Z,16.17
2018-11-10T05:17:46.538Z,13.10
2018-11-10T05:20:15.015Z,13.20
2018-11-10T05:22:43.488Z,12.07
2018-11-10T05:25:12.157Z,10.87
2018-11-10T05:27:40.922Z,12.30
2018-11-10T05:30:09.829Z,13.37
2018-11-10T05:32:38.280Z,11.27
2018-11-10T05:35:07.410Z,11.17
2018-11-10T05:37:35.883Z,12.50
2018-11-10T05:40:05.794Z,11.33
2018-11-10T05:42:34.258Z,10.87
2018-11-10T05:45:02.889Z,13.07
2018-11-10T05:47:31.341Z,10.20
2018-11-10T05:49:59.821Z,13.67
2018-11-10T05:52:28.293Z,11.53
2018-11-10T05:54:56.916Z,11.17
2018-11-10T05:57:25.577Z,11.03
2018-11-10T05:59:54.281Z,10.27
2018-11-10T06:02:22.723Z,10.40
2018-11-10T06:04:51.194Z,9.90
2018-11-10T06:07:19.664Z,9.90
2018-11-10T06:09:48.280Z,11.77
2018-11-10T06:12:16.789Z,9.80
2018-11-10T06:14:45.252Z,10.10
2018-11-10T06:17:13.722Z,10.63
2018-11-10T06:19:42.172Z,10.80
2018-11-10T06:22:10.638Z,9.90
2018-11-10T06:24:39.493Z,11.23
2018-11-10T06:27:07.934Z,9.93
2018-11-10T06:29:36.410Z,10.63
2018-11-10T06:32:04.999Z,9.43
2018-11-10T06:34:33.454Z,8.83
2018-11-10T06:37:01.914Z,10.60
2018-11-10T06:39:30.377Z,9.57
2018-11-10T06:41:58.837Z,7.93
2018-11-10T06:44:27.296Z,9.50
2018-11-10T06:46:55.861Z,10.67
2018-11-10T06:49:24.443Z,9.47
2018-11-10T06:51:52.980Z,13.33
2018-11-10T06:54:21.529Z,10.00
2018-11-10T06:56:49.979Z,7.97
2018-11-10T06:59:18.425Z,10.47
2018-11-10T07:01:46.885Z,8.77
2018-11-10T07:04:15.317Z,8.60
2018-11-10T07:06:43.782Z,8.87
2018-11-10T07:09:12.499Z,9.30
2018-11-10T07:11:41.835Z,8.53
2018-11-10T07:14:11.891Z,10.23
2018-11-10T07:16:40.343Z,8.23
2018-11-10T07:19:08.774Z,8.53
2018-11-10T07:21:37.225Z,10.10
2018-11-10T07:24:06.197Z,10.83
2018-11-10T07:26:34.714Z,7.83
2018-11-10T07:29:03.267Z,9.90
2018-11-10T07:31:31.722Z,9.97
2018-11-10T07:34:00.178Z,9.87
2018-11-10T07:36:28.653Z,9.97
2018-11-10T07:38:57.121Z,12.70
2018-11-10T07:41:25.569Z,8.47
2018-11-10T07:43:54.066Z,10.10
2018-11-10T07:46:22.534Z,9.57
2018-11-10T07:48:50.953Z,8.97
2018-11-10T07:51:21.231Z,13.03
2018-11-10T07:53:49.784Z,12.40
2018-11-10T07:56:18.246Z,11.70
2018-11-10T07:58:46.702Z,15.03
2018-11-10T08:01:15.176Z,10.00
2018-11-10T08:03:43.593Z,10.90
2018-11-10T08:06:12.050Z,10.40
2018-11-10T08:08:40.482Z,11.83
2018-11-10T08:11:09.131Z,11.03
2018-11-10T08:13:37.921Z,13.67
2018-11-10T08:16:07.014Z,12.93
2018-11-10T08:18:35.559Z,15.23
2018-11-10T08:21:04.538Z,14.93
2018-11-10T08:23:33.949Z,17.93
2018-11-10T08:26:02.715Z,12.93
2018-11-10T08:28:31.170Z,11.47
2018-11-10T08:30:59.620Z,10.70
2018-11-10T08:33:28.256Z,11.00
2018-11-10T08:35:56.984Z,11.80
2018-11-10T08:38:25.462Z,13.07
2018-11-10T08:40:53.910Z,13.93
2018-11-10T08:43:22.423Z,12.07
2018-11-10T08:45:50.858Z,11.53
2018-11-10T08:48:19.296Z,10.07
2018-11-10T08:50:47.725Z,14.70
2018-11-10T08:53:16.201Z,9.70
2018-11-10T08:55:44.842Z,10.07
2018-11-10T08:58:13.282Z,10.80
2018-11-10T09:00:41.749Z,9.47
2018-11-10T09:03:10.209Z,11.10
2018-11-10T09:05:38.626Z,8.23
2018-11-10T09:08:07.450Z,8.60
2018-11-10T09:10:35.890Z,9.67
2018-11-10T09:13:04.350Z,8.60
2018-11-10T09:15:32.782Z,10.70
2018-11-10T09:18:01.222Z,8.50
2018-11-10T09:20:29.633Z,11.33
2018-11-10T09:22:58.073Z,9.33
2018-11-10T09:25:26.498Z,7.07
2018-11-10T09:27:55.006Z,11.33
2018-11-10T09:31:26.217Z,8.30
2018-11-10T09:33:54.629Z,7.90
2018-11-10T09:36:23.055Z,7.30
2018-11-10T09:38:51.685Z,7.53
2018-11-10T09:41:20.118Z,5.37
2018-11-10T09:43:48.918Z,7.63
2018-11-10T09:46:17.337Z,4.80
2018-11-10T09:48:45.773Z,5.50
2018-11-10T09:51:14.221Z,8.30
2018-11-10T09:53:42.667Z,5.67
2018-11-10T09:56:11.110Z,8.10
2018-11-10T09:58:39.590Z,7.37
2018-11-10T10:01:08.160Z,4.67
2018-11-10T10:03:36.674Z,5.53
2018-11-10T10:06:05.238Z,9.93
2018-11-10T10:08:33.698Z,7.13
2018-11-10T10:11:02.231Z,6.47
2018-11-10T10:13:30.689Z,6.20
2018-11-10T10:15:59.509Z,5.20
2018-11-10T10:18:28.142Z,7.33
2018-11-10T10:20:56.570Z,4.77
2018-11-10T10:23:25.021Z,8.43
2018-11-10T10:25:53.513Z,7.57
2018-11-10T10:28:21.989Z,6.63
2018-11-10T10:30:50.608Z,5.83
2018-11-10T10:33:19.061Z,6.60
2018-11-10T10:35:47.527Z,6.73
2018-11-10T10:38:15.979Z,8.20
2018-11-10T10:40:44.458Z,5.83
2018-11-10T10:43:12.901Z,9.17
2018-11-10T10:45:41.329Z,6.30
2018-11-10T10:48:09.806Z,5.23
2018-11-10T10:50:38.306Z,7.47
2018-11-10T10:53:06.853Z,10.63
2018-11-10T10:55:35.366Z,8.37
2018-11-10T10:58:03.865Z,6.50
2018-11-10T11:00:37.650Z,9.20
2018-11-10T11:03:11.498Z,6.07
2018-11-10T11:05:40.991Z,9.07
2018-11-10T11:08:09.589Z,8.40
2018-11-10T11:10:38.075Z,6.03
2018-11-10T11:13:06.701Z,6.73
2018-11-10T11:15:35.451Z,4.90
2018-11-10T11:18:04.289Z,4.70
2018-11-10T11:20:32.798Z,5.40
2018-11-10T11:23:01.381Z,6.03
2018-11-10T11:25:32.585Z,6.23
2018-11-10T11:28:01.067Z,6.00
2018-11-10T11:30:29.542Z,6.23
2018-11-10T11:32:58.046Z,6.07
2018-11-10T11:35:26.632Z,4.97
2018-11-10T11:37:55.249Z,6.80
2018-11-10T11:40:23.726Z,5.40
2018-11-10T11:42:52.183Z,5.90
2018-11-10T11:45:20.783Z,8.60
2018-11-10T11:47:50.328Z,4.40
2018-11-10T11:50:18.834Z,4.10
2018-11-10T11:52:47.306Z,3.93
2018-11-10T11:55:16.013Z,5.93
2018-11-10T11:57:44.934Z,7.80
2018-11-10T12:00:15.173Z,5.30
2018-11-10T12:02:44.034Z,4.87
2018-11-10T12:05:14.098Z,5.97
2018-11-10T12:07:43.846Z,4.97
2018-11-10T12:10:13.601Z,3.90
2018-11-10T12:12:42.161Z,10.53
2018-11-10T12:15:12.062Z,6.80
2018-11-10T12:17:40.971Z,6.17
2018-11-10T12:20:10.889Z,5.10
2018-11-10T12:22:39.362Z,5.83
2018-11-10T12:25:08.462Z,4.40
2018-11-10T12:27:36.894Z,6.00
2018-11-10T12:30:06.355Z,4.67
2018-11-10T12:32:34.830Z,6.70
2018-11-10T12:35:03.322Z,4.50
2018-11-10T12:37:31.761Z,4.37
2018-11-10T12:40:00.230Z,4.17
2018-11-10T12:42:28.672Z,4.73
2018-11-10T12:44:57.164Z,4.60
2018-11-10T12:47:25.649Z,4.50
2018-11-10T12:49:54.279Z,4.73
2018-11-10T12:52:22.799Z,5.20
2018-11-10T12:59:42.294Z,5.80
2018-11-10T13:02:10.888Z,7.60
2018-11-10T13:04:39.374Z,6.27
2018-11-10T13:07:07.882Z,10.00
2018-11-10T13:09:36.503Z,7.90
2018-11-10T13:12:05.825Z,7.53
2018-11-10T13:14:34.453Z,7.97
2018-11-10T13:17:03.427Z,5.40
2018-11-10T13:19:31.912Z,9.33
2018-11-10T13:22:00.355Z,9.83
2018-11-10T13:24:28.838Z,6.80
2018-11-10T13:26:57.394Z,7.20
2018-11-10T13:29:27.180Z,7.70
2018-11-10T13:31:55.766Z,7.33
2018-11-10T13:34:24.695Z,9.97
2018-11-10T13:36:53.177Z,34.47
2018-11-10T13:39:21.690Z,17.03
2018-11-10T13:41:50.149Z,7.47
2018-11-10T13:44:18.966Z,8.13
2018-11-10T13:46:47.528Z,9.33
2018-11-10T13:49:16.424Z,8.47
2018-11-10T13:51:45.185Z,8.73
2018-11-10T13:54:13.523Z,8.03
2018-11-10T13:56:42.006Z,5.87
2018-11-10T13:59:10.508Z,6.00
2018-11-10T14:01:39.211Z,6.70
2018-11-10T14:04:08.113Z,8.57
2018-11-10T14:06:36.591Z,8.37
2018-11-10T14:09:11.340Z,8.63
2018-11-10T14:11:40.191Z,10.20
2018-11-10T14:14:09.196Z,6.93
2018-11-10T14:16:39.050Z,8.97
2018-11-10T14:19:07.754Z,9.37
2018-11-10T14:21:36.402Z,7.60
2018-11-10T14:24:05.592Z,11.00
2018-11-10T14:26:34.102Z,7.00
2018-11-10T14:29:02.923Z,6.63
2018-11-10T14:31:31.424Z,9.53
2018-11-10T14:34:00.999Z,6.77
2018-11-10T14:36:29.527Z,8.50
2018-11-10T14:38:57.952Z,7.03
2018-11-10T14:41:26.505Z,7.90
2018-11-10T14:43:55.000Z,6.50
2018-11-10T14:46:23.588Z,6.50
2018-11-10T14:48:52.021Z,7.80
2018-11-10T14:51:20.485Z,6.33
2018-11-10T14:53:48.898Z,8.23
2018-11-10T14:56:17.334Z,6.73
2018-11-10T14:58:45.830Z,6.77
2018-11-10T15:01:14.414Z,6.33
2018-11-10T15:03:42.835Z,6.63
2018-11-10T15:06:11.301Z,6.47
2018-11-10T15:08:41.566Z,7.87
2018-11-10T15:11:10.415Z,6.73
2018-11-10T15:13:38.918Z,7.93
2018-11-10T15:16:07.878Z,6.97
2018-11-10T15:18:36.334Z,7.63
2018-11-10T15:21:05.572Z,8.10
2018-11-10T15:23:34.034Z,6.53
2018-11-10T15:26:02.622Z,6.53
2018-11-10T15:28:32.109Z,8.17
2018-11-10T15:31:01.445Z,9.03
2018-11-10T15:33:29.922Z,6.33
2018-11-10T15:35:58.430Z,7.47
2018-11-10T15:38:26.897Z,7.93
2018-11-10T15:40:55.413Z,8.77
2018-11-10T15:43:23.862Z,9.73
2018-11-10T15:45:52.333Z,7.63
2018-11-10T15:48:20.810Z,7.70
2018-11-10T15:50:49.326Z,7.20
2018-11-10T15:53:17.813Z,7.40
2018-11-10T15:55:46.332Z,7.93
2018-11-10T15:58:15.376Z,9.07
2018-11-10T16:00:43.815Z,10.40
2018-11-10T16:03:12.256Z,7.73
2018-11-10T16:05:40.679Z,7.77
2018-11-10T16:08:09.149Z,8.20
2018-11-10T16:10:37.589Z,8.63
2018-11-10T16:13:06.042Z,9.93
2018-11-10T16:15:34.466Z,9.33
2018-11-10T16:18:02.913Z,8.07
2018-11-10T16:20:31.346Z,8.50
2018-11-10T16:22:59.786Z,8.80
2018-11-10T16:25:28.222Z,8.50
2018-11-10T16:27:56.705Z,9.70
2018-11-10T16:30:25.348Z,8.53
2018-11-10T16:32:53.803Z,9.53
2018-11-10T16:35:22.239Z,9.50
2018-11-10T16:37:50.717Z,9.33
2018-11-10T16:40:20.147Z,9.10
2018-11-10T16:42:50.190Z,11.00
2018-11-10T16:45:19.570Z,9.70
2018-11-10T16:47:48.045Z,10.70
2018-11-10T16:50:16.478Z,10.33
2018-11-10T16:52:45.951Z,8.90
2018-11-10T16:55:14.437Z,9.23
2018-11-10T16:57:43.026Z,13.40
2018-11-10T17:00:14.218Z,9.70
2018-11-10T17:02:42.950Z,9.57
2018-11-10T17:05:11.406Z,9.63
2018-11-10T17:07:40.254Z,9.27
2018-11-10T17:10:10.955Z,9.60
2018-11-10T17:12:39.487Z,10.60
2018-11-10T17:15:08.152Z,9.57
2018-11-10T17:17:36.792Z,9.17
2018-11-10T17:20:07.017Z,8.60
2018-11-10T17:22:35.654Z,9.17
2018-11-10T17:25:04.283Z,8.30
2018-11-10T17:27:32.742Z,8.87
2018-11-10T17:30:01.224Z,9.97
2018-11-10T17:32:29.790Z,8.10
2018-11-10T17:34:58.237Z,10.90
2018-11-10T17:37:27.487Z,8.10
2018-11-10T17:39:56.018Z,8.27
2018-11-10T17:42:24.537Z,7.23
2018-11-10T17:44:53.026Z,13.53
2018-11-10T17:47:21.482Z,9.00
2018-11-10T17:49:49.895Z,9.37
2018-11-10T17:52:18.437Z,9.27
2018-11-10T17:54:47.010Z,7.63
2018-11-10T17:57:15.545Z,7.40
2018-11-10T17:59:43.957Z,8.70
2018-11-10T18:02:12.381Z,7.30
2018-11-10T18:04:40.995Z,8.07
2018-11-10T18:07:09.437Z,14.10
2018-11-10T18:09:37.893Z,8.87
2018-11-10T18:12:06.671Z,7.87
2018-11-10T18:14:35.229Z,8.33
2018-11-10T18:17:03.649Z,9.20
2018-11-10T18:19:32.081Z,7.20
2018-11-10T18:22:00.501Z,6.20
2018-11-10T18:24:29.789Z,5.80
2018-11-10T18:26:58.230Z,7.60
2018-11-10T18:29:26.818Z,13.57
2018-11-10T18:31:55.274Z,11.17
2018-11-10T18:34:23.736Z,10.73
2018-11-10T18:36:52.174Z,13.90
2018-11-10T18:39:20.672Z,5.43
2018-11-10T18:41:49.294Z,5.50
2018-11-10T18:44:17.761Z,5.17
2018-11-10T18:46:46.231Z,5.10
2018-11-10T18:49:14.964Z,4.90
2018-11-10T18:51:43.427Z,4.83
2018-11-10T18:54:11.916Z,5.97
2018-11-10T18:56:40.344Z,9.13
2018-11-10T18:59:08.780Z,5.90
2018-11-10T19:01:37.211Z,6.13
2018-11-10T19:04:06.079Z,4.30
2018-11-10T19:06:34.510Z,4.83
2018-11-10T19:09:03.162Z,4.53
2018-11-10T19:11:31.624Z,5.07
2018-11-10T19:14:00.078Z,4.67
2018-11-10T19:16:28.519Z,7.40
2018-11-10T19:18:56.950Z,6.53
2018-11-10T19:21:25.422Z,4.70
2018-11-10T19:23:53.848Z,4.97
2018-11-10T19:26:23.077Z,4.87
2018-11-10T19:28:51.501Z,4.37
2018-11-10T19:31:19.946Z,4.10
2018-11-10T19:33:48.386Z,5.87
2018-11-10T19:36:16.989Z,4.17
2018-11-10T19:38:45.431Z,3.67
2018-11-10T19:41:13.874Z,3.87
2018-11-10T19:43:42.321Z,4.97
2018-11-10T19:46:10.789Z,5.30
2018-11-10T19:48:39.510Z,5.15
2018-11-10T19:51:10.988Z,5.50
2018-11-10T19:53:39.779Z,4.70
2018-11-10T19:56:08.733Z,6.20
2018-11-10T19:58:37.169Z,6.60
2018-11-10T20:01:06.371Z,8.40
2018-11-10T20:03:34.813Z,4.50
2018-11-10T20:06:03.274Z,5.33
2018-11-10T20:08:32.031Z,5.40
2018-11-10T20:11:00.503Z,6.00
2018-11-10T20:13:28.965Z,6.07
2018-11-10T20:15:57.394Z,5.83
2018-11-10T20:18:25.890Z,6.50
2018-11-10T20:20:54.341Z,6.43
2018-11-10T20:23:22.836Z,7.37
2018-11-10T20:25:51.306Z,7.37
2018-11-10T20:28:19.755Z,7.60
2018-11-10T20:30:48.191Z,7.17
2018-11-10T20:33:16.626Z,7.77
2018-11-10T20:35:45.079Z,8.00
2018-11-10T20:38:13.885Z,8.07
2018-11-10T20:40:42.305Z,7.47
2018-11-10T20:43:10.763Z,7.53
2018-11-10T20:45:39.182Z,8.70
2018-11-10T20:48:07.634Z,9.97
2018-11-10T20:50:36.090Z,8.53
2018-11-10T20:53:04.754Z,6.97
2018-11-10T20:55:33.209Z,7.57
2018-11-10T20:58:01.654Z,7.10
2018-11-10T21:00:30.102Z,7.37
2018-11-10T21:02:58.742Z,9.03
2018-11-10T21:05:27.182Z,7.90
2018-11-10T21:07:56.228Z,7.83
2018-11-10T21:10:25.677Z,8.67
2018-11-10T21:13:05.094Z,7.77
2018-11-10T21:15:33.522Z,8.20
2018-11-10T21:18:02.285Z,8.10
2018-11-10T21:20:30.746Z,10.07
2018-11-10T21:22:59.186Z,8.00
2018-11-10T21:25:27.617Z,8.23
2018-11-10T21:27:56.035Z,8.73
2018-11-10T21:30:24.474Z,8.73
2018-11-10T21:32:52.908Z,8.33
2018-11-10T21:35:21.453Z,8.10
2018-11-10T21:37:49.986Z,8.90
2018-11-10T21:40:19.594Z,7.53
2018-11-10T21:42:48.054Z,9.47
2018-11-10T21:45:17.166Z,7.50
2018-11-10T21:47:45.861Z,6.83
2018-11-10T21:50:15.703Z,7.70
2018-11-10T21:52:44.784Z,9.50
2018-11-10T21:55:15.609Z,8.27
2018-11-10T21:57:44.745Z,6.60
2018-11-10T22:00:15.377Z,6.90
2018-11-10T22:02:44.366Z,8.93
2018-11-10T22:05:13.113Z,7.93
2018-11-10T22:07:41.918Z,6.93
2018-11-10T22:10:12.832Z,6.33
2018-11-10T22:12:41.603Z,6.83
2018-11-10T22:15:12.442Z,6.23
2018-11-10T22:17:41.451Z,8.83
2018-11-10T22:20:11.329Z,5.67
2018-11-10T22:22:39.823Z,6.03
2018-11-10T22:25:09.836Z,6.43
2018-11-10T22:27:39.313Z,6.60
2018-11-10T22:30:08.666Z,6.17
2018-11-10T22:32:37.082Z,8.47
2018-11-10T22:35:06.042Z,7.40
2018-11-10T22:37:34.494Z,6.70
2018-11-10T22:40:03.312Z,7.30
2018-11-10T22:42:31.773Z,6.87
2018-11-10T22:45:00.209Z,7.50
2018-11-10T22:47:28.681Z,7.20
2018-11-10T22:49:57.098Z,7.57
2018-11-10T22:52:25.685Z,7.33
2018-11-10T22:54:54.110Z,8.63
2018-11-10T22:57:22.546Z,7.87
2018-11-10T22:59:50.970Z,8.37
2018-11-10T23:02:19.442Z,7.93
2018-11-10T23:04:47.882Z,7.73
2018-11-10T23:07:16.330Z,8.27
2018-11-10T23:09:44.768Z,8.10
2018-11-10T23:12:13.226Z,8.33
2018-11-10T23:14:41.669Z,8.13
2018-11-10T23:17:10.145Z,10.40
2018-11-10T23:19:38.761Z,9.03
2018-11-10T23:22:07.212Z,8.60
2018-11-10T23:24:35.639Z,9.50
2018-11-10T23:27:04.090Z,9.90
2018-11-10T23:29:32.528Z,10.87
2018-11-10T23:32:01.113Z,9.63
2018-11-10T23:34:29.522Z,8.87
2018-11-10T23:36:57.972Z,7.87
2018-11-10T23:39:26.389Z,8.23
2018-11-10T23:41:54.834Z,7.83
2018-11-10T23:44:23.277Z,10.60
2018-11-10T23:46:51.721Z,7.43
2018-11-10T23:49:20.149Z,7.87
2018-11-10T23:51:48.594Z,6.47
2018-11-10T23:54:17.091Z,6.20
2018-11-10T23:56:45.653Z,6.53
2018-11-10T23:59:14.079Z,6.63
